Time;durP1;ratioP1;P1;durP2;ratioP2;P2;SDS_P1;SDS_P2;PMS_P1;PMS_P2;Temp;Humidity;BMP_temperature;BMP_pressure;BME280_temperature;BME280_humidity;BME280_pressure;Samples;Min_cycle;Max_cycle;Signal;HPM_P1;HPM_P2
2023/11/04 00:02:05;;;;;;;6.68;1.90;;;;;;;;;;4986118;28;20051;-82
2023/11/04 00:04:34;;;;;;;8.13;1.70;;;;;;;;;;4980631;28;20051;-80
2023/11/04 00:07:02;;;;;;;8.45;2.08;;;;;;;;;;4981192;28;20046;-79
2023/11/04 00:09:29;;;;;;;8.50;2.13;;;;;;;;;;4981205;28;20105;-81
2023/11/04 00:12:14;;;;;;;6.18;1.90;;;;;;;;;;4985432;28;20459;-81
2023/11/04 00:14:41;;;;;;;4.20;1.83;;;;;;;;;;4981126;28;20047;-81
2023/11/04 00:17:08;;;;;;;5.18;1.75;;;;;;;;;;4980652;28;20055;-81
2023/11/04 00:19:36;;;;;;;8.57;1.70;;;;;;;;;;4987620;28;20489;-81
2023/11/04 00:22:03;;;;;;;5.85;1.90;;;;;;;;;;4986701;28;20050;-81
2023/11/04 00:24:31;;;;;;;6.63;2.20;;;;;;;;;;4983459;28;20062;-81
2023/11/04 00:26:59;;;;;;;5.38;1.80;;;;;;;;;;4983967;28;20085;-81
2023/11/04 00:29:26;;;;;;;10.93;2.20;;;;;;;;;;4983781;28;20129;-81
2023/11/04 00:31:53;;;;;;;3.88;1.85;;;;;;;;;;4984723;28;20053;-81
2023/11/04 00:34:21;;;;;;;7.57;1.85;;;;;;;;;;5001691;28;20100;-82
2023/11/04 00:36:48;;;;;;;3.92;2.05;;;;;;;;;;5002195;28;20061;-80
2023/11/04 00:39:17;;;;;;;5.03;1.70;;;;;;;;;;4992449;28;20046;-82
2023/11/04 00:41:44;;;;;;;7.03;1.92;;;;;;;;;;4990852;28;20050;-81
2023/11/04 00:44:11;;;;;;;4.75;1.67;;;;;;;;;;4990585;28;20060;-81
2023/11/04 00:46:39;;;;;;;7.10;2.13;;;;;;;;;;4990133;28;20046;-80
2023/11/04 00:49:06;;;;;;;4.93;1.85;;;;;;;;;;4989671;28;20458;-81
2023/11/04 00:51:34;;;;;;;5.18;1.70;;;;;;;;;;4999415;28;20050;-79
2023/11/04 00:54:01;;;;;;;4.82;2.00;;;;;;;;;;4990163;28;20125;-80
2023/11/04 00:56:29;;;;;;;3.78;1.67;;;;;;;;;;4998617;28;20050;-81
2023/11/04 00:58:56;;;;;;;9.25;2.35;;;;;;;;;;4998857;28;20054;-80
2023/11/04 01:01:23;;;;;;;6.25;1.92;;;;;;;;;;4989994;28;20106;-82
2023/11/04 01:03:51;;;;;;;8.68;2.28;;;;;;;;;;4989762;28;20047;-80
2023/11/04 01:06:18;;;;;;;8.88;1.83;;;;;;;;;;4989525;28;20054;-81
2023/11/04 01:08:45;;;;;;;5.07;1.63;;;;;;;;;;4990567;28;20082;-81
2023/11/04 01:11:13;;;;;;;5.35;2.17;;;;;;;;;;4989360;28;20058;-80
2023/11/04 01:13:40;;;;;;;3.65;1.80;;;;;;;;;;4999738;28;20492;-82
2023/11/04 01:16:07;;;;;;;8.30;2.17;;;;;;;;;;4982190;28;20057;-80
2023/11/04 01:18:34;;;;;;;5.60;1.88;;;;;;;;;;4989050;28;20058;-80
2023/11/04 01:21:02;;;;;;;5.47;2.15;;;;;;;;;;4989570;28;20515;-81
2023/11/04 01:23:29;;;;;;;3.78;2.00;;;;;;;;;;4989441;28;20046;-81
2023/11/04 01:25:57;;;;;;;4.18;1.80;;;;;;;;;;4975041;28;20133;-81
2023/11/04 01:28:24;;;;;;;5.57;2.00;;;;;;;;;;4994057;28;20640;-81
2023/11/04 01:30:51;;;;;;;5.25;1.95;;;;;;;;;;4979408;28;20047;-79
2023/11/04 01:33:18;;;;;;;3.92;1.63;;;;;;;;;;4977812;28;20047;-83
2023/11/04 01:35:46;;;;;;;7.55;1.88;;;;;;;;;;4974479;28;20054;-80
2023/11/04 01:38:13;;;;;;;4.57;2.20;;;;;;;;;;4975164;28;20102;-77
2023/11/04 01:40:40;;;;;;;4.68;1.90;;;;;;;;;;4982639;28;20405;-78
2023/11/04 01:43:08;;;;;;;7.18;2.03;;;;;;;;;;4990294;28;20051;-78
2023/11/04 01:45:35;;;;;;;5.85;2.00;;;;;;;;;;4982159;28;20480;-78
2023/11/04 01:48:02;;;;;;;4.75;1.90;;;;;;;;;;4982171;28;20050;-78
2023/11/04 01:50:30;;;;;;;7.55;1.88;;;;;;;;;;4975277;28;20078;-78
2023/11/04 01:52:57;;;;;;;7.43;2.35;;;;;;;;;;4973743;28;20082;-79
2023/11/04 01:55:24;;;;;;;8.38;2.08;;;;;;;;;;4982775;28;20506;-78
2023/11/04 01:57:51;;;;;;;6.70;1.88;;;;;;;;;;4975389;28;20477;-78
2023/11/04 02:00:20;;;;;;;3.55;1.67;;;;;;;;;;4981396;28;20065;-81
2023/11/04 02:02:48;;;;;;;3.42;1.85;;;;;;;;;;4990650;28;20113;-80
2023/11/04 02:05:15;;;;;;;4.93;2.00;;;;;;;;;;4973425;28;20142;-79
2023/11/04 02:07:43;;;;;;;6.15;1.83;;;;;;;;;;4975398;28;20047;-80
2023/11/04 02:10:10;;;;;;;2.83;1.80;;;;;;;;;;4975467;28;20054;-78
2023/11/04 02:12:38;;;;;;;5.22;1.45;;;;;;;;;;4973663;28;20054;-78
2023/11/04 02:15:06;;;;;;;4.45;1.70;;;;;;;;;;4984718;28;20070;-77
2023/11/04 02:17:34;;;;;;;3.42;1.70;;;;;;;;;;4976983;28;20058;-79
2023/11/04 02:20:02;;;;;;;2.15;1.38;;;;;;;;;;4974089;28;20054;-79
2023/11/04 02:22:30;;;;;;;5.43;1.80;;;;;;;;;;4975701;28;20081;-78
2023/11/04 02:24:58;;;;;;;7.47;1.65;;;;;;;;;;4981807;28;20058;-78
2023/11/04 02:27:26;;;;;;;6.20;1.73;;;;;;;;;;4985330;28;20562;-78
2023/11/04 02:29:53;;;;;;;2.63;1.52;;;;;;;;;;4985591;28;20097;-79
2023/11/04 02:32:20;;;;;;;2.67;1.67;;;;;;;;;;4977463;28;20046;-79
2023/11/04 02:34:48;;;;;;;4.38;1.50;;;;;;;;;;4985851;28;20054;-78
2023/11/04 02:37:15;;;;;;;5.82;1.58;;;;;;;;;;4994636;28;20069;-78
2023/11/04 02:39:42;;;;;;;4.90;2.00;;;;;;;;;;4988473;28;20081;-79
2023/11/04 02:42:09;;;;;;;6.72;2.03;;;;;;;;;;4977202;28;20474;-77
2023/11/04 02:44:37;;;;;;;5.05;1.30;;;;;;;;;;4994136;28;20112;-79
2023/11/04 02:47:04;;;;;;;3.83;1.65;;;;;;;;;;4987548;28;20484;-79
2023/11/04 02:49:31;;;;;;;3.10;1.42;;;;;;;;;;4989598;28;20058;-79
2023/11/04 02:51:59;;;;;;;4.15;1.88;;;;;;;;;;4997976;28;20077;-77
2023/11/04 02:54:36;;;;;;;4.03;1.50;;;;;;;;;;4997038;28;20046;-78
2023/11/04 02:57:04;;;;;;;1.70;0.90;;;;;;;;;;4997583;28;20050;-80
2023/11/04 02:59:31;;;;;;;3.28;1.20;;;;;;;;;;4988250;28;20105;-79
2023/11/04 03:01:58;;;;;;;2.88;1.67;;;;;;;;;;4990952;28;20046;-79
2023/11/04 03:04:26;;;;;;;5.25;1.52;;;;;;;;;;4998927;28;20046;-81
2023/11/04 03:06:53;;;;;;;5.30;1.38;;;;;;;;;;4993554;28;20137;-79
2023/11/04 03:09:21;;;;;;;4.18;1.40;;;;;;;;;;4981377;28;20047;-80
2023/11/04 03:11:48;;;;;;;2.58;1.45;;;;;;;;;;4983271;28;20050;-81
2023/11/04 03:14:16;;;;;;;5.65;1.50;;;;;;;;;;4990708;28;20089;-80
2023/11/04 03:16:44;;;;;;;3.97;1.80;;;;;;;;;;4989497;28;20042;-81
2023/11/04 03:19:11;;;;;;;3.67;1.73;;;;;;;;;;4991663;28;20050;-80
2023/11/04 03:21:39;;;;;;;3.42;1.60;;;;;;;;;;4982513;28;20073;-81
2023/11/04 03:24:06;;;;;;;1.50;1.38;;;;;;;;;;5000598;28;20046;-81
2023/11/04 03:26:33;;;;;;;5.00;1.73;;;;;;;;;;4990992;28;20116;-80
2023/11/04 03:29:00;;;;;;;5.78;1.38;;;;;;;;;;4998250;28;20097;-79
2023/11/04 03:31:28;;;;;;;3.58;1.50;;;;;;;;;;4990121;28;20054;-79
2023/11/04 03:33:55;;;;;;;4.20;1.60;;;;;;;;;;4989260;28;20050;-80
2023/11/04 03:36:24;;;;;;;2.38;1.25;;;;;;;;;;4998435;28;20551;-79
2023/11/04 03:38:52;;;;;;;5.65;1.83;;;;;;;;;;4991189;28;20046;-82
2023/11/04 03:41:19;;;;;;;3.95;1.77;;;;;;;;;;4991865;28;20121;-80
2023/11/04 03:43:46;;;;;;;4.20;1.25;;;;;;;;;;4989601;28;20113;-83
2023/11/04 03:46:14;;;;;;;5.50;1.48;;;;;;;;;;4993409;28;20097;-78
2023/11/04 03:48:41;;;;;;;2.88;1.33;;;;;;;;;;5004895;28;20495;-82
2023/11/04 03:51:08;;;;;;;4.25;1.30;;;;;;;;;;4988194;28;20050;-81
2023/11/04 03:53:36;;;;;;;3.03;1.38;;;;;;;;;;4986948;28;20063;-82
2023/11/04 03:56:04;;;;;;;3.08;1.40;;;;;;;;;;4985713;28;20046;-81
2023/11/04 03:58:31;;;;;;;8.93;1.48;;;;;;;;;;4986944;28;20462;-80
2023/11/04 04:00:59;;;;;;;6.70;1.20;;;;;;;;;;4987728;28;20142;-78
2023/11/04 04:03:26;;;;;;;4.13;1.50;;;;;;;;;;4997234;28;20081;-81
2023/11/04 04:05:53;;;;;;;2.60;1.20;;;;;;;;;;4989656;28;20050;-81
2023/11/04 04:08:21;;;;;;;1.55;1.45;;;;;;;;;;4990406;28;20554;-80
2023/11/04 04:10:48;;;;;;;2.25;1.00;;;;;;;;;;4998056;28;20109;-80
2023/11/04 04:13:15;;;;;;;2.70;1.30;;;;;;;;;;4988024;28;20051;-81
2023/11/04 04:15:42;;;;;;;1.40;1.13;;;;;;;;;;4997629;28;20412;-79
2023/11/04 04:18:10;;;;;;;3.40;1.52;;;;;;;;;;4979177;28;20054;-79
2023/11/04 04:20:37;;;;;;;2.50;1.20;;;;;;;;;;4987369;28;20112;-80
2023/11/04 04:23:05;;;;;;;2.05;1.00;;;;;;;;;;4988499;28;20108;-81
2023/11/04 04:25:32;;;;;;;2.85;1.25;;;;;;;;;;4987097;28;20054;-80
2023/11/04 04:27:59;;;;;;;1.45;1.27;;;;;;;;;;4997445;28;20043;-78
2023/11/04 04:30:26;;;;;;;1.27;1.17;;;;;;;;;;4997089;28;20042;-81
2023/11/04 04:32:54;;;;;;;1.10;1.00;;;;;;;;;;4996506;28;20053;-81
2023/11/04 04:35:21;;;;;;;2.72;1.50;;;;;;;;;;4978532;28;20077;-78
2023/11/04 04:37:48;;;;;;;2.42;1.20;;;;;;;;;;4996317;28;20054;-81
2023/11/04 04:40:16;;;;;;;3.65;1.35;;;;;;;;;;4997789;28;20061;-80
2023/11/04 04:42:43;;;;;;;3.05;1.10;;;;;;;;;;4979123;28;20558;-81
2023/11/04 04:45:10;;;;;;;3.45;1.17;;;;;;;;;;4985791;28;20495;-82
2023/11/04 04:47:39;;;;;;;2.20;1.15;;;;;;;;;;4982096;28;20050;-81
2023/11/04 04:50:07;;;;;;;2.55;0.90;;;;;;;;;;4997489;28;20043;-79
2023/11/04 04:52:35;;;;;;;0.98;0.95;;;;;;;;;;4986286;28;20043;-77
2023/11/04 04:55:02;;;;;;;1.20;0.98;;;;;;;;;;4978102;28;20057;-82
2023/11/04 04:57:30;;;;;;;0.75;0.75;;;;;;;;;;4979947;28;20061;-81
2023/11/04 04:59:58;;;;;;;1.08;0.80;;;;;;;;;;4986752;28;20053;-82
2023/11/04 05:02:25;;;;;;;1.05;0.90;;;;;;;;;;4987995;28;20046;-80
2023/11/04 05:04:52;;;;;;;2.60;1.05;;;;;;;;;;4987860;28;20052;-79
2023/11/04 05:07:20;;;;;;;2.72;0.65;;;;;;;;;;4989615;28;20050;-80
2023/11/04 05:09:47;;;;;;;3.97;0.75;;;;;;;;;;4997255;28;20054;-81
2023/11/04 05:12:14;;;;;;;1.63;0.85;;;;;;;;;;4988285;28;20062;-78
2023/11/04 05:14:42;;;;;;;0.77;0.55;;;;;;;;;;4987661;28;20053;-81
2023/11/04 05:17:09;;;;;;;5.60;1.48;;;;;;;;;;4987866;28;20510;-78
2023/11/04 05:19:36;;;;;;;1.33;0.73;;;;;;;;;;4987966;28;20420;-79
2023/11/04 05:22:04;;;;;;;2.60;0.82;;;;;;;;;;4988519;28;20050;-82
2023/11/04 05:24:31;;;;;;;2.22;0.60;;;;;;;;;;4989598;28;20474;-81
2023/11/04 05:27:01;;;;;;;1.33;0.95;;;;;;;;;;4979104;28;20054;-77
2023/11/04 05:29:28;;;;;;;2.88;0.68;;;;;;;;;;4995872;28;20061;-81
2023/11/04 05:31:55;;;;;;;3.63;1.13;;;;;;;;;;4988444;28;20464;-81
2023/11/04 05:34:22;;;;;;;2.45;0.70;;;;;;;;;;4987689;28;20069;-79
2023/11/04 05:36:51;;;;;;;3.75;0.70;;;;;;;;;;4987612;28;20137;-79
2023/11/04 05:39:18;;;;;;;0.75;0.50;;;;;;;;;;4988281;28;20054;-79
2023/11/04 05:41:45;;;;;;;0.93;0.75;;;;;;;;;;4980400;28;20515;-81
2023/11/04 05:44:13;;;;;;;0.75;0.75;;;;;;;;;;4987971;28;20054;-79
2023/11/04 05:46:40;;;;;;;2.50;0.60;;;;;;;;;;5003050;28;20034;-79
2023/11/04 05:49:08;;;;;;;1.05;0.73;;;;;;;;;;5000923;28;20068;-79
2023/11/04 05:51:36;;;;;;;4.78;0.90;;;;;;;;;;4992056;28;20050;-78
2023/11/04 05:54:03;;;;;;;3.30;0.80;;;;;;;;;;4990578;28;20051;-83
2023/11/04 05:56:31;;;;;;;0.77;0.60;;;;;;;;;;4988543;28;20480;-79
2023/11/04 05:58:58;;;;;;;0.60;0.60;;;;;;;;;;4990599;28;20054;-79
2023/11/04 06:01:28;;;;;;;1.05;0.93;;;;;;;;;;4991338;28;20054;-81
2023/11/04 06:03:55;;;;;;;1.05;0.70;;;;;;;;;;5000920;28;20055;-80
2023/11/04 06:06:23;;;;;;;1.90;0.90;;;;;;;;;;5000040;28;20510;-79
2023/11/04 06:08:51;;;;;;;2.13;0.80;;;;;;;;;;5000316;28;20054;-80
2023/11/04 06:11:19;;;;;;;2.83;0.77;;;;;;;;;;5000084;28;20042;-79
2023/11/04 06:13:52;;;;;;;3.13;0.73;;;;;;;;;;4989214;28;20050;-80
2023/11/04 06:16:22;;;;;;;3.30;0.82;;;;;;;;;;4981330;28;20542;-78
2023/11/04 06:18:49;;;;;;;2.72;0.75;;;;;;;;;;4987144;28;20484;-79
2023/11/04 06:21:16;;;;;;;1.58;0.70;;;;;;;;;;4997221;28;20616;-79
2023/11/04 06:23:44;;;;;;;2.05;0.80;;;;;;;;;;5002581;28;20089;-78
2023/11/04 06:26:11;;;;;;;0.90;0.80;;;;;;;;;;4987881;28;20114;-82
2023/11/04 06:28:41;;;;;;;1.70;1.00;;;;;;;;;;4985901;28;20418;-79
2023/11/04 06:31:10;;;;;;;0.80;0.80;;;;;;;;;;5000581;28;20046;-82
2023/11/04 06:33:37;;;;;;;1.05;0.95;;;;;;;;;;4992293;28;20054;-78
2023/11/04 06:36:05;;;;;;;1.90;0.95;;;;;;;;;;4992256;28;20129;-79
2023/11/04 06:38:32;;;;;;;3.40;1.20;;;;;;;;;;4991715;28;20427;-78
2023/11/04 06:41:00;;;;;;;2.58;1.00;;;;;;;;;;4990302;28;20496;-79
2023/11/04 06:43:30;;;;;;;0.95;0.88;;;;;;;;;;4984469;28;20060;-78
2023/11/04 06:45:58;;;;;;;4.75;1.27;;;;;;;;;;4988326;28;20054;-78
2023/11/04 06:48:25;;;;;;;1.70;0.70;;;;;;;;;;4991024;28;20447;-81
2023/11/04 06:50:53;;;;;;;0.75;0.75;;;;;;;;;;4998688;28;20477;-77
2023/11/04 06:53:20;;;;;;;3.50;0.80;;;;;;;;;;4965124;28;20381;-82
2023/11/04 06:55:48;;;;;;;2.25;0.80;;;;;;;;;;4981575;28;20451;-81
2023/11/04 06:58:15;;;;;;;0.63;0.63;;;;;;;;;;4988806;28;20116;-79
2023/11/04 07:00:42;;;;;;;0.77;0.77;;;;;;;;;;4989011;28;20050;-80
2023/11/04 07:03:10;;;;;;;1.05;0.73;;;;;;;;;;4988996;28;20053;-81
2023/11/04 07:05:38;;;;;;;1.42;0.80;;;;;;;;;;4988519;28;20515;-78
2023/11/04 07:08:06;;;;;;;1.30;1.00;;;;;;;;;;4988250;28;20053;-78
2023/11/04 07:10:37;;;;;;;1.00;0.90;;;;;;;;;;4981792;28;20089;-82
2023/11/04 07:13:04;;;;;;;0.80;0.77;;;;;;;;;;4981266;28;20050;-81
2023/11/04 07:15:33;;;;;;;2.28;1.20;;;;;;;;;;4988154;28;20058;-78
2023/11/04 07:18:00;;;;;;;3.58;0.68;;;;;;;;;;4988394;28;20050;-78
2023/11/04 07:20:27;;;;;;;5.80;1.00;;;;;;;;;;4988939;28;20059;-82
2023/11/04 07:22:55;;;;;;;2.65;1.10;;;;;;;;;;4988483;28;20447;-80
2023/11/04 07:25:22;;;;;;;1.13;0.90;;;;;;;;;;4987666;28;20463;-77
2023/11/04 07:27:49;;;;;;;1.25;0.80;;;;;;;;;;4988547;28;20050;-78
2023/11/04 07:30:16;;;;;;;4.22;0.85;;;;;;;;;;4998032;28;20420;-78
2023/11/04 07:32:44;;;;;;;1.77;0.68;;;;;;;;;;4987123;28;20054;-78
2023/11/04 07:35:11;;;;;;;2.67;0.82;;;;;;;;;;4996526;28;20133;-79
2023/11/04 07:37:38;;;;;;;2.63;0.77;;;;;;;;;;4981702;28;20510;-79
2023/11/04 07:40:07;;;;;;;0.55;0.55;;;;;;;;;;4997428;28;20054;-78
2023/11/04 07:42:35;;;;;;;6.32;2.42;;;;;;;;;;4987804;28;20057;-81
2023/11/04 07:45:03;;;;;;;2.17;1.40;;;;;;;;;;4988898;28;20057;-81
2023/11/04 07:47:31;;;;;;;3.33;0.80;;;;;;;;;;4988681;28;20054;-79
2023/11/04 07:49:59;;;;;;;2.38;0.63;;;;;;;;;;4988122;28;20046;-81
2023/11/04 07:52:26;;;;;;;1.45;0.75;;;;;;;;;;4988365;28;20490;-81
2023/11/04 07:54:53;;;;;;;1.00;0.95;;;;;;;;;;4997825;28;20042;-81
2023/11/04 07:57:21;;;;;;;1.25;1.15;;;;;;;;;;4997547;28;20533;-81
2023/11/04 07:59:48;;;;;;;1.25;0.80;;;;;;;;;;4988560;28;20058;-83
2023/11/04 08:02:15;;;;;;;2.30;1.05;;;;;;;;;;4997978;28;20066;-82
2023/11/04 08:04:42;;;;;;;1.40;1.30;;;;;;;;;;4983361;28;20454;-83
2023/11/04 08:07:10;;;;;;;4.10;2.08;;;;;;;;;;4979995;28;20054;-79
2023/11/04 08:09:37;;;;;;;4.30;0.98;;;;;;;;;;4988329;28;20073;-80
2023/11/04 08:12:04;;;;;;;1.33;1.10;;;;;;;;;;4998411;28;20047;-79
2023/11/04 08:14:31;;;;;;;12.80;1.80;;;;;;;;;;4989514;28;20046;-83
2023/11/04 08:16:59;;;;;;;1.70;1.60;;;;;;;;;;4989190;28;20050;-82
2023/11/04 08:19:26;;;;;;;4.85;2.63;;;;;;;;;;4989489;28;20124;-82
2023/11/04 08:21:53;;;;;;;1.60;1.50;;;;;;;;;;4989333;28;20073;-81
2023/11/04 08:24:21;;;;;;;2.08;1.30;;;;;;;;;;4988745;28;20054;-81
2023/11/04 08:26:48;;;;;;;3.35;1.40;;;;;;;;;;4998002;28;20054;-79
2023/11/04 08:29:15;;;;;;;1.20;1.20;;;;;;;;;;4980547;28;20058;-81
2023/11/04 08:31:42;;;;;;;2.05;1.58;;;;;;;;;;4988637;28;20397;-80
2023/11/04 08:34:10;;;;;;;1.70;1.60;;;;;;;;;;4998719;28;20042;-82
2023/11/04 08:36:37;;;;;;;2.38;1.55;;;;;;;;;;4998100;28;20077;-82
2023/11/04 08:39:06;;;;;;;5.15;1.90;;;;;;;;;;4998941;28;20050;-81
2023/11/04 08:41:34;;;;;;;1.90;1.75;;;;;;;;;;4990269;28;20096;-83
2023/11/04 08:44:01;;;;;;;2.47;2.25;;;;;;;;;;4989062;28;20062;-80
2023/11/04 08:46:29;;;;;;;3.00;2.80;;;;;;;;;;4997872;28;20058;-83
2023/11/04 08:48:56;;;;;;;3.25;2.40;;;;;;;;;;4988544;28;20054;-80
2023/11/04 08:51:24;;;;;;;8.50;3.40;;;;;;;;;;4989505;28;20122;-78
2023/11/04 08:53:51;;;;;;;2.30;2.10;;;;;;;;;;4989154;28;20058;-83
2023/11/04 08:56:19;;;;;;;1.92;1.70;;;;;;;;;;4990159;28;20047;-81
2023/11/04 08:58:47;;;;;;;16.88;2.75;;;;;;;;;;4990214;28;20046;-83
2023/11/04 09:01:14;;;;;;;2.25;2.05;;;;;;;;;;4989870;28;20560;-82
2023/11/04 09:03:41;;;;;;;2.97;1.48;;;;;;;;;;4991341;28;20063;-83
2023/11/04 09:06:21;;;;;;;2.55;1.73;;;;;;;;;;4980635;28;20075;-83
2023/11/04 09:08:48;;;;;;;1.77;1.55;;;;;;;;;;4998726;28;20472;-83
2023/11/04 09:11:16;;;;;;;2.42;1.60;;;;;;;;;;5000439;28;20054;-80
2023/11/04 09:13:44;;;;;;;3.10;1.45;;;;;;;;;;4982119;28;20484;-81
2023/11/04 09:16:11;;;;;;;2.10;1.90;;;;;;;;;;5000742;28;20111;-80
2023/11/04 09:18:38;;;;;;;2.85;1.60;;;;;;;;;;5001111;28;20065;-82
2023/11/04 09:21:06;;;;;;;3.20;1.60;;;;;;;;;;4988270;28;20061;-81
2023/11/04 09:23:33;;;;;;;1.42;1.40;;;;;;;;;;4993831;28;20069;-80
2023/11/04 09:26:01;;;;;;;1.30;1.20;;;;;;;;;;5004530;28;20081;-82
2023/11/04 09:28:28;;;;;;;2.58;1.25;;;;;;;;;;5006206;28;20050;-81
2023/11/04 09:30:55;;;;;;;1.38;1.35;;;;;;;;;;5003818;28;20046;-79
2023/11/04 09:33:23;;;;;;;3.20;1.48;;;;;;;;;;4988144;28;20061;-80
2023/11/04 09:35:51;;;;;;;1.52;1.42;;;;;;;;;;4989445;28;20519;-83
2023/11/04 09:38:18;;;;;;;3.10;1.20;;;;;;;;;;4989542;28;20054;-81
2023/11/04 09:40:45;;;;;;;1.38;0.95;;;;;;;;;;4987892;28;20054;-81
2023/11/04 09:43:13;;;;;;;4.88;2.90;;;;;;;;;;4988399;28;20061;-81
2023/11/04 09:45:41;;;;;;;2.95;1.40;;;;;;;;;;4988994;28;20488;-80
2023/11/04 09:48:08;;;;;;;2.22;0.93;;;;;;;;;;4998199;28;20500;-83
2023/11/04 09:50:35;;;;;;;1.52;1.10;;;;;;;;;;4980590;28;20053;-82
2023/11/04 09:53:06;;;;;;;2.08;1.10;;;;;;;;;;4981842;28;20050;-83
2023/11/04 09:55:35;;;;;;;1.15;0.93;;;;;;;;;;4999312;28;20046;-84
2023/11/04 09:58:03;;;;;;;7.78;1.13;;;;;;;;;;4990906;28;20050;-83
2023/11/04 10:00:32;;;;;;;1.58;1.48;;;;;;;;;;4992795;28;20077;-84
2023/11/04 10:02:59;;;;;;;4.55;1.40;;;;;;;;;;4993647;28;20046;-80
2023/11/04 10:05:28;;;;;;;1.65;0.90;;;;;;;;;;4986529;28;20121;-83
2023/11/04 10:07:56;;;;;;;5.72;1.80;;;;;;;;;;5002677;28;20064;-81
2023/11/04 10:10:23;;;;;;;5.40;1.85;;;;;;;;;;5005137;28;20046;-78
2023/11/04 10:12:56;;;;;;;1.70;1.00;;;;;;;;;;5005286;28;20047;-79
2023/11/04 10:15:24;;;;;;;0.90;0.90;;;;;;;;;;4992015;28;20050;-80
2023/11/04 10:17:51;;;;;;;4.50;1.35;;;;;;;;;;4985603;28;20046;-81
2023/11/04 10:20:20;;;;;;;2.33;1.25;;;;;;;;;;4981474;28;20062;-81
2023/11/04 10:22:48;;;;;;;1.73;1.13;;;;;;;;;;4981959;28;20100;-80
2023/11/04 10:25:15;;;;;;;1.58;1.30;;;;;;;;;;4985307;28;20066;-80
2023/11/04 10:27:43;;;;;;;4.78;1.23;;;;;;;;;;4977890;28;20059;-80
2023/11/04 10:30:10;;;;;;;1.67;1.38;;;;;;;;;;4993671;28;20047;-80
2023/11/04 10:32:39;;;;;;;3.13;1.63;;;;;;;;;;4986037;28;20085;-81
2023/11/04 10:35:12;;;;;;;2.75;1.35;;;;;;;;;;4985736;28;20134;-80
2023/11/04 10:37:44;;;;;;;1.65;1.52;;;;;;;;;;4979562;28;20051;-80
2023/11/04 10:40:13;;;;;;;3.05;1.52;;;;;;;;;;4976689;28;20047;-82
2023/11/04 10:42:48;;;;;;;11.43;1.65;;;;;;;;;;4979496;28;20522;-80
2023/11/04 10:45:24;;;;;;;7.88;1.90;;;;;;;;;;4986949;28;20424;-80
2023/11/04 10:47:57;;;;;;;3.58;1.05;;;;;;;;;;4985783;28;20047;-80
2023/11/04 10:50:33;;;;;;;1.48;1.20;;;;;;;;;;4987686;28;20054;-83
2023/11/04 10:53:01;;;;;;;10.02;1.20;;;;;;;;;;4985944;28;20416;-80
2023/11/04 10:55:32;;;;;;;1.63;0.95;;;;;;;;;;4977403;28;20047;-81
2023/11/04 10:58:03;;;;;;;1.08;0.90;;;;;;;;;;4990618;28;20563;-80
2023/11/04 11:00:31;;;;;;;2.50;1.30;;;;;;;;;;4985404;28;20471;-81
2023/11/04 11:02:59;;;;;;;0.95;0.90;;;;;;;;;;4978704;28;20055;-80
2023/11/04 11:05:28;;;;;;;1.48;0.70;;;;;;;;;;4985283;28;20086;-81
2023/11/04 11:07:57;;;;;;;2.55;1.13;;;;;;;;;;4989208;28;20098;-80
2023/11/04 11:10:28;;;;;;;1.13;1.02;;;;;;;;;;4985563;28;20105;-81
2023/11/04 11:13:08;;;;;;;1.88;1.10;;;;;;;;;;4985155;28;20456;-80
2023/11/04 11:15:36;;;;;;;1.17;1.10;;;;;;;;;;4985389;28;20101;-80
2023/11/04 11:18:04;;;;;;;3.58;1.20;;;;;;;;;;4987694;28;20400;-80
2023/11/04 11:20:33;;;;;;;1.50;0.90;;;;;;;;;;4974150;28;20134;-81
2023/11/04 11:23:04;;;;;;;1.17;0.88;;;;;;;;;;4980533;28;20471;-81
2023/11/04 11:25:33;;;;;;;1.55;1.00;;;;;;;;;;4985245;28;20101;-81
2023/11/04 11:28:02;;;;;;;1.02;0.93;;;;;;;;;;4985132;28;20047;-80
2023/11/04 11:30:39;;;;;;;7.03;2.00;;;;;;;;;;4978612;28;20118;-80
2023/11/04 11:33:08;;;;;;;6.97;3.90;;;;;;;;;;4985422;28;20106;-78
2023/11/04 11:35:54;;;;;;;12.38;4.78;;;;;;;;;;4992979;28;20061;-80
2023/11/04 11:38:21;;;;;;;1.38;1.27;;;;;;;;;;4980095;28;20101;-81
2023/11/04 11:40:49;;;;;;;2.53;1.42;;;;;;;;;;4977102;28;20516;-79
2023/11/04 11:43:19;;;;;;;1.95;1.33;;;;;;;;;;4985308;28;20078;-82
2023/11/04 11:45:49;;;;;;;10.02;2.38;;;;;;;;;;4978877;28;20050;-82
2023/11/04 11:48:17;;;;;;;1.80;0.93;;;;;;;;;;4985314;28;20059;-80
2023/11/04 11:50:45;;;;;;;1.05;1.05;;;;;;;;;;4981022;28;20130;-82
2023/11/04 11:53:13;;;;;;;1.30;0.80;;;;;;;;;;4984968;28;20054;-80
2023/11/04 11:55:41;;;;;;;0.90;0.90;;;;;;;;;;4978394;28;20050;-81
2023/11/04 11:58:12;;;;;;;1.50;1.02;;;;;;;;;;4979555;28;20043;-80
2023/11/04 12:00:39;;;;;;;1.17;1.08;;;;;;;;;;4978908;28;20055;-80
2023/11/04 12:03:07;;;;;;;1.65;0.98;;;;;;;;;;4977794;28;20424;-80
2023/11/04 12:05:36;;;;;;;2.25;1.58;;;;;;;;;;4980565;28;20061;-80
2023/11/04 12:08:03;;;;;;;0.80;0.80;;;;;;;;;;4985120;28;20089;-82
2023/11/04 12:10:30;;;;;;;2.75;1.30;;;;;;;;;;4973170;28;20544;-80
2023/11/04 12:12:59;;;;;;;0.80;0.80;;;;;;;;;;4981771;28;20046;-80
2023/11/04 12:15:27;;;;;;;2.08;1.00;;;;;;;;;;4976667;28;20508;-80
2023/11/04 12:17:56;;;;;;;2.03;1.17;;;;;;;;;;4979120;28;20043;-81
2023/11/04 12:20:27;;;;;;;2.30;0.80;;;;;;;;;;4977305;28;20057;-79
2023/11/04 12:22:56;;;;;;;4.18;1.10;;;;;;;;;;4977721;28;20057;-84
2023/11/04 12:25:23;;;;;;;2.60;1.17;;;;;;;;;;4984973;28;20509;-83
2023/11/04 12:27:50;;;;;;;0.73;0.73;;;;;;;;;;4991109;28;20058;-80
2023/11/04 12:30:18;;;;;;;0.98;0.60;;;;;;;;;;5003043;28;20054;-81
2023/11/04 12:32:47;;;;;;;3.00;0.90;;;;;;;;;;4974097;28;20043;-80
2023/11/04 12:35:14;;;;;;;0.80;0.80;;;;;;;;;;4981148;28;20133;-80
2023/11/04 12:37:42;;;;;;;0.80;0.63;;;;;;;;;;4983393;28;20058;-81
2023/11/04 12:40:10;;;;;;;0.75;0.75;;;;;;;;;;4989309;28;20054;-80
2023/11/04 12:42:38;;;;;;;1.08;0.98;;;;;;;;;;4980346;28;20057;-79
2023/11/04 12:45:12;;;;;;;0.98;0.63;;;;;;;;;;4990572;28;20050;-80
2023/11/04 12:47:39;;;;;;;1.17;0.60;;;;;;;;;;4976167;28;20061;-80
2023/11/04 12:50:08;;;;;;;4.05;0.60;;;;;;;;;;4972605;28;20520;-80
2023/11/04 12:52:35;;;;;;;1.75;0.65;;;;;;;;;;4983335;28;20055;-79
2023/11/04 12:55:03;;;;;;;3.67;0.73;;;;;;;;;;4982681;28;20107;-81
2023/11/04 12:57:33;;;;;;;2.35;0.50;;;;;;;;;;4976384;28;20066;-82
2023/11/04 13:00:03;;;;;;;7.55;1.30;;;;;;;;;;4982763;28;20101;-80
2023/11/04 13:02:30;;;;;;;2.58;0.60;;;;;;;;;;4990770;28;20065;-81
2023/11/04 13:04:59;;;;;;;1.80;0.80;;;;;;;;;;4990886;28;20118;-81
2023/11/04 13:07:27;;;;;;;1.00;0.50;;;;;;;;;;4975004;28;20055;-80
2023/11/04 13:09:55;;;;;;;2.35;0.68;;;;;;;;;;4979521;28;20047;-81
2023/11/04 13:12:22;;;;;;;1.13;0.88;;;;;;;;;;4976896;28;20113;-80
2023/11/04 13:14:50;;;;;;;5.40;1.27;;;;;;;;;;4976673;28;20058;-80
2023/11/04 13:17:17;;;;;;;3.22;0.85;;;;;;;;;;4982537;28;20047;-80
2023/11/04 13:19:44;;;;;;;2.83;1.50;;;;;;;;;;4971411;28;20082;-80
2023/11/04 13:22:12;;;;;;;5.03;1.10;;;;;;;;;;4981108;28;20051;-80
2023/11/04 13:24:39;;;;;;;1.25;0.98;;;;;;;;;;4980132;28;20042;-79
2023/11/04 13:27:07;;;;;;;1.35;0.85;;;;;;;;;;4983420;28;20046;-80
2023/11/04 13:29:34;;;;;;;0.60;0.55;;;;;;;;;;4994641;28;20050;-80
2023/11/04 13:32:02;;;;;;;2.40;0.75;;;;;;;;;;4994553;28;20050;-81
2023/11/04 13:34:30;;;;;;;1.38;0.95;;;;;;;;;;4985683;28;20077;-80
2023/11/04 13:36:58;;;;;;;2.10;0.65;;;;;;;;;;4985514;28;20070;-80
2023/11/04 13:39:26;;;;;;;0.57;0.52;;;;;;;;;;4985795;28;20046;-79
2023/11/04 13:41:53;;;;;;;2.42;0.40;;;;;;;;;;4986979;28;20061;-81
2023/11/04 13:44:21;;;;;;;1.05;1.05;;;;;;;;;;4988544;28;20145;-81
2023/11/04 13:46:48;;;;;;;3.65;0.50;;;;;;;;;;4995563;28;20058;-80
2023/11/04 13:49:15;;;;;;;0.88;0.60;;;;;;;;;;4995112;28;20515;-81
2023/11/04 13:51:42;;;;;;;0.70;0.70;;;;;;;;;;4994519;28;20047;-80
2023/11/04 13:54:11;;;;;;;2.30;0.80;;;;;;;;;;4985935;28;20053;-82
2023/11/04 13:56:39;;;;;;;3.45;0.70;;;;;;;;;;4977466;28;20053;-81
2023/11/04 13:59:08;;;;;;;0.80;0.60;;;;;;;;;;4997483;28;20046;-82
2023/11/04 14:01:35;;;;;;;1.50;0.70;;;;;;;;;;4987723;28;20078;-83
2023/11/04 14:04:03;;;;;;;0.60;0.43;;;;;;;;;;4997543;28;20058;-83
2023/11/04 14:06:31;;;;;;;0.40;0.30;;;;;;;;;;4988275;28;20397;-83
2023/11/04 14:08:59;;;;;;;3.28;1.23;;;;;;;;;;4988464;28;20054;-81
2023/11/04 14:11:27;;;;;;;1.05;0.40;;;;;;;;;;4999898;28;20050;-84
2023/11/04 14:13:55;;;;;;;0.65;0.63;;;;;;;;;;4997626;28;20058;-83
2023/11/04 14:16:22;;;;;;;0.40;0.40;;;;;;;;;;4997133;28;20476;-80
2023/11/04 14:18:50;;;;;;;1.02;0.50;;;;;;;;;;4994767;28;20117;-82
2023/11/04 14:21:17;;;;;;;1.48;0.50;;;;;;;;;;4985152;28;20047;-79
2023/11/04 14:23:44;;;;;;;1.27;0.82;;;;;;;;;;4985658;28;20113;-80
2023/11/04 14:26:12;;;;;;;0.70;0.55;;;;;;;;;;4994993;28;20475;-80
2023/11/04 14:28:39;;;;;;;0.73;0.43;;;;;;;;;;4986399;28;20055;-81
2023/11/04 14:31:06;;;;;;;0.52;0.52;;;;;;;;;;4995575;28;20492;-81
2023/11/04 14:33:34;;;;;;;0.95;0.50;;;;;;;;;;4986682;28;20047;-82
2023/11/04 14:36:01;;;;;;;0.82;0.40;;;;;;;;;;4986201;28;20130;-81
2023/11/04 14:38:28;;;;;;;0.40;0.30;;;;;;;;;;4986648;28;20054;-82
2023/11/04 14:40:56;;;;;;;0.63;0.57;;;;;;;;;;4996445;28;20113;-81
2023/11/04 14:43:24;;;;;;;0.60;0.60;;;;;;;;;;4999236;28;20058;-81
2023/11/04 14:45:51;;;;;;;0.50;0.50;;;;;;;;;;4998750;28;20056;-79
2023/11/04 14:48:19;;;;;;;0.68;0.68;;;;;;;;;;4998426;28;20651;-80